Time;durP1;ratioP1;P1;durP2;ratioP2;P2;SDS_P1;SDS_P2;PMS_P1;PMS_P2;Temp;Humidity;BMP_temperature;BMP_pressure;BME280_temperature;BME280_humidity;BME280_pressure;Samples;Min_cycle;Max_cycle;Signal;HPM_P1;HPM_P2
2022/04/30 00:00:59;;;;;;;14.05;5.15;;;12.20;99.90;;;;;;10411327;28;20052;-57
2022/04/30 00:06:01;;;;;;;8.38;4.32;;;12.20;99.90;;;;;;10430257;28;20561;-57
2022/04/30 00:11:03;;;;;;;16.38;4.20;;;12.10;99.90;;;;;;10427454;28;20427;-56
2022/04/30 00:16:05;;;;;;;13.48;4.50;;;12.00;99.90;;;;;;10424350;28;20481;-58
2022/04/30 00:21:06;;;;;;;9.60;4.18;;;11.90;99.90;;;;;;10428105;28;20064;-57
2022/04/30 00:26:08;;;;;;;14.25;4.60;;;11.90;99.90;;;;;;10426685;28;20068;-57
2022/04/30 00:31:10;;;;;;;12.77;4.93;;;11.80;99.90;;;;;;10424261;28;20513;-59
2022/04/30 00:36:12;;;;;;;10.40;4.45;;;11.70;99.90;;;;;;10421895;28;20049;-59
2022/04/30 00:41:15;;;;;;;10.93;4.60;;;11.60;99.90;;;;;;10424400;28;20072;-57
2022/04/30 00:46:18;;;;;;;11.95;5.30;;;11.60;99.90;;;;;;10426780;28;20051;-57
2022/04/30 00:51:22;;;;;;;11.38;4.70;;;11.50;99.90;;;;;;10427713;28;20056;-56
2022/04/30 00:56:29;;;;;;;13.27;5.10;;;11.50;99.90;;;;;;10423375;28;20049;-57
2022/04/30 01:01:33;;;;;;;11.27;5.25;;;11.40;99.90;;;;;;10421537;28;20839;-58
2022/04/30 01:07:00;;;;;;;11.68;5.10;;;11.30;99.90;;;;;;10403496;28;20045;-57
2022/04/30 01:12:08;;;;;;;12.73;5.18;;;11.10;99.90;;;;;;10415814;28;20449;-57
2022/04/30 01:17:10;;;;;;;10.75;4.57;;;10.90;99.90;;;;;;10426344;28;20087;-57
2022/04/30 01:22:22;;;;;;;16.13;5.97;;;10.80;99.90;;;;;;10424636;28;20053;-57
2022/04/30 01:27:28;;;;;;;13.43;5.90;;;10.80;99.90;;;;;;10423460;28;20162;-57
2022/04/30 01:37:54;;;;;;;11.05;5.35;;;10.70;99.90;;;;;;10424039;28;20064;-57
2022/04/30 01:42:59;;;;;;;10.13;4.60;;;10.60;99.90;;;;;;10400358;28;20095;-57
2022/04/30 01:48:03;;;;;;;11.32;4.97;;;10.60;99.90;;;;;;10394867;28;20132;-57
2022/04/30 01:53:05;;;;;;;9.90;4.85;;;10.60;99.90;;;;;;10433275;28;20106;-57
2022/04/30 01:58:07;;;;;;;9.73;4.93;;;10.60;99.90;;;;;;10430134;28;20414;-57
2022/04/30 02:03:10;;;;;;;13.68;4.95;;;10.60;99.90;;;;;;10430187;28;20053;-57
2022/04/30 02:08:15;;;;;;;17.55;5.90;;;10.60;99.90;;;;;;10430471;28;20158;-57
2022/04/30 02:13:20;;;;;;;8.05;4.55;;;10.60;99.90;;;;;;10428732;28;20061;-56
2022/04/30 02:18:24;;;;;;;8.95;4.40;;;10.50;99.90;;;;;;10430144;28;20053;-57
2022/04/30 02:23:25;;;;;;;10.25;4.82;;;10.50;99.90;;;;;;10429711;28;20084;-57
2022/04/30 02:28:27;;;;;;;11.40;5.07;;;10.50;99.90;;;;;;10412820;28;20385;-57
2022/04/30 02:33:29;;;;;;;11.85;5.40;;;10.50;99.90;;;;;;10431344;28;20068;-57
2022/04/30 02:38:30;;;;;;;9.75;4.90;;;10.50;99.90;;;;;;10431008;28;20119;-57
2022/04/30 02:43:32;;;;;;;10.00;4.85;;;10.40;99.90;;;;;;10429296;28;20103;-57
2022/04/30 02:48:34;;;;;;;11.93;5.63;;;10.40;99.90;;;;;;10426752;28;20056;-56
2022/04/30 02:53:37;;;;;;;11.48;5.35;;;10.40;99.90;;;;;;10428013;28;20053;-57
2022/04/30 03:04:19;;;;;;;10.35;4.80;;;10.40;99.90;;;;;;10230581;28;20063;-58
2022/04/30 03:09:21;;;;;;;8.52;4.30;;;10.40;99.90;;;;;;10384152;28;20053;-57
2022/04/30 03:14:22;;;;;;;9.75;4.60;;;10.40;99.90;;;;;;10428407;28;20067;-57
2022/04/30 03:24:46;;;;;;;7.38;3.83;;;10.40;99.90;;;;;;10424894;28;20045;-57
2022/04/30 03:29:48;;;;;;;11.13;5.78;;;10.30;99.90;;;;;;10427955;28;20065;-57
2022/04/30 03:34:51;;;;;;;10.27;4.82;;;10.30;99.90;;;;;;10429792;28;20049;-57
2022/04/30 03:39:54;;;;;;;8.65;4.65;;;10.20;99.90;;;;;;10429858;28;20597;-57
2022/04/30 03:44:55;;;;;;;11.02;5.10;;;10.10;99.90;;;;;;10430482;28;20045;-58
2022/04/30 03:49:59;;;;;;;15.18;6.07;;;10.10;99.90;;;;;;10425954;28;20664;-57
2022/04/30 03:55:00;;;;;;;12.63;6.85;;;10.00;99.90;;;;;;10425039;28;20052;-57
2022/04/30 04:00:04;;;;;;;10.88;5.50;;;9.90;99.90;;;;;;10426736;28;20091;-57
2022/04/30 04:05:08;;;;;;;13.90;6.57;;;9.80;99.90;;;;;;10427985;28;20057;-59
2022/04/30 04:10:11;;;;;;;14.52;6.40;;;9.80;99.90;;;;;;10428298;28;20756;-59
2022/04/30 04:20:33;;;;;;;12.63;6.63;;;9.70;99.90;;;;;;10423831;28;20049;-59
2022/04/30 04:30:58;;;;;;;13.98;6.68;;;9.70;99.90;;;;;;10425125;28;20049;-59
2022/04/30 04:36:00;;;;;;;15.52;7.10;;;9.70;99.90;;;;;;10426594;28;20061;-58
2022/04/30 04:41:02;;;;;;;21.27;6.75;;;9.70;99.90;;;;;;10428034;28;20079;-59
2022/04/30 04:46:04;;;;;;;14.38;6.75;;;9.70;99.90;;;;;;10425755;28;20071;-59
2022/04/30 04:51:06;;;;;;;16.50;7.15;;;9.70;99.90;;;;;;10428024;28;20060;-60
2022/04/30 04:56:07;;;;;;;14.50;6.80;;;9.70;99.90;;;;;;10426509;28;20111;-58
2022/04/30 05:01:09;;;;;;;13.30;6.30;;;9.70;99.90;;;;;;10426181;28;20053;-58
2022/04/30 05:06:11;;;;;;;13.57;6.10;;;9.70;99.90;;;;;;10427880;28;20602;-58
2022/04/30 05:11:13;;;;;;;15.27;6.53;;;9.60;99.90;;;;;;10424463;28;20068;-59
2022/04/30 05:16:14;;;;;;;11.77;5.72;;;9.70;99.90;;;;;;10424321;28;20062;-59
2022/04/30 05:21:16;;;;;;;12.05;5.88;;;9.70;99.90;;;;;;10428323;28;20143;-59
2022/04/30 05:26:18;;;;;;;13.57;6.78;;;9.70;99.90;;;;;;10402151;28;20057;-59
2022/04/30 05:31:19;;;;;;;13.50;6.57;;;9.80;99.90;;;;;;10432757;28;20147;-58
2022/04/30 05:36:21;;;;;;;12.00;5.45;;;9.80;99.90;;;;;;10431587;28;20053;-58
2022/04/30 05:41:23;;;;;;;11.15;5.38;;;9.80;99.90;;;;;;10427944;28;20051;-58
2022/04/30 05:46:26;;;;;;;9.00;4.70;;;9.80;99.90;;;;;;10431398;28;20071;-58
2022/04/30 05:51:28;;;;;;;9.07;4.60;;;9.80;99.90;;;;;;10429477;28;20128;-58
2022/04/30 05:56:30;;;;;;;10.65;5.13;;;9.70;99.90;;;;;;10422980;28;20473;-58
2022/04/30 06:01:31;;;;;;;10.88;5.40;;;9.70;99.90;;;;;;10429707;28;20048;-59
2022/04/30 06:06:34;;;;;;;9.23;5.22;;;9.70;99.90;;;;;;10411637;28;20103;-58
2022/04/30 06:11:35;;;;;;;9.20;5.00;;;9.60;99.90;;;;;;10430925;28;20052;-58
2022/04/30 06:16:37;;;;;;;9.90;5.53;;;9.60;99.90;;;;;;10409078;28;20144;-58
2022/04/30 06:21:40;;;;;;;9.52;4.72;;;9.60;99.90;;;;;;10422512;28;20057;-60
2022/04/30 06:26:42;;;;;;;11.23;4.95;;;9.50;99.90;;;;;;10429153;28;20061;-59
2022/04/30 06:31:44;;;;;;;9.57;4.72;;;9.40;99.90;;;;;;10420723;28;20065;-59
2022/04/30 06:36:46;;;;;;;10.45;4.60;;;9.30;99.90;;;;;;10428134;28;20053;-59
2022/04/30 06:41:47;;;;;;;10.75;4.78;;;9.10;99.90;;;;;;10423836;28;20447;-59
2022/04/30 06:46:49;;;;;;;12.23;5.00;;;9.00;99.90;;;;;;10425300;28;20067;-59
2022/04/30 06:51:51;;;;;;;10.02;4.38;;;8.80;99.90;;;;;;10424119;28;20098;-60
2022/04/30 06:57:08;;;;;;;14.43;5.63;;;8.80;99.90;;;;;;10352632;28;20050;-60
2022/04/30 07:02:18;;;;;;;12.57;5.07;;;8.80;99.90;;;;;;10408745;28;20063;-61
2022/04/30 07:07:21;;;;;;;10.48;5.07;;;8.80;99.90;;;;;;10418225;28;20064;-60
2022/04/30 07:12:23;;;;;;;13.13;6.22;;;8.80;99.90;;;;;;10400879;28;20045;-61
2022/04/30 07:17:24;;;;;;;16.15;6.35;;;8.90;99.90;;;;;;10424406;28;20099;-60
2022/04/30 07:22:26;;;;;;;13.40;5.28;;;9.00;99.90;;;;;;10421486;28;20484;-60
2022/04/30 07:27:28;;;;;;;11.48;4.95;;;9.10;99.90;;;;;;10421261;28;20056;-59
2022/04/30 07:32:30;;;;;;;10.80;4.28;;;9.20;99.90;;;;;;10420470;28;20060;-60
2022/04/30 07:37:31;;;;;;;8.85;3.88;;;9.30;99.90;;;;;;10424577;28;20053;-60
2022/04/30 07:42:33;;;;;;;9.38;4.60;;;9.20;99.90;;;;;;10417866;28;20056;-60
2022/04/30 07:47:35;;;;;;;6.57;3.47;;;9.20;99.90;;;;;;10421014;28;20056;-60
2022/04/30 07:52:36;;;;;;;7.72;2.95;;;9.20;99.90;;;;;;10418966;28;20053;-59
2022/04/30 07:57:38;;;;;;;8.15;2.85;;;9.20;99.90;;;;;;10425304;28;20695;-60
2022/04/30 08:02:42;;;;;;;7.07;2.75;;;9.30;99.90;;;;;;10421386;28;20174;-59
2022/04/30 08:07:44;;;;;;;4.43;1.95;;;9.30;99.90;;;;;;10421749;28;20117;-59
2022/04/30 08:12:46;;;;;;;5.00;1.98;;;9.20;99.90;;;;;;10420456;28;20041;-59
2022/04/30 08:17:48;;;;;;;3.15;1.73;;;9.20;99.90;;;;;;10425924;28;20415;-59
2022/04/30 08:22:50;;;;;;;4.45;1.70;;;9.20;99.90;;;;;;10416927;28;20175;-59
2022/04/30 08:27:52;;;;;;;3.35;1.50;;;9.20;99.90;;;;;;10423305;28;20045;-59
2022/04/30 08:32:54;;;;;;;5.70;1.73;;;9.10;99.90;;;;;;10423664;28;20127;-60
2022/04/30 08:37:55;;;;;;;3.45;1.60;;;9.20;99.90;;;;;;10423337;28;20071;-60
2022/04/30 08:43:07;;;;;;;4.55;1.67;;;9.20;99.90;;;;;;10421673;28;20048;-60
2022/04/30 08:48:11;;;;;;;4.10;1.55;;;9.20;99.90;;;;;;10419481;28;20055;-59
2022/04/30 08:53:14;;;;;;;5.57;1.40;;;9.20;99.90;;;;;;10400799;28;20403;-60
2022/04/30 08:58:16;;;;;;;3.67;1.80;;;9.10;99.90;;;;;;10421345;28;20045;-60
2022/04/30 09:03:20;;;;;;;3.13;1.92;;;9.20;99.90;;;;;;10426560;28;20056;-60
2022/04/30 09:08:21;;;;;;;3.08;1.38;;;9.20;99.90;;;;;;10421148;28;20061;-60
2022/04/30 09:13:23;;;;;;;3.88;1.92;;;9.30;99.90;;;;;;10425567;28;20115;-61
2022/04/30 09:18:26;;;;;;;5.05;2.25;;;9.20;99.90;;;;;;10421396;28;20049;-59
2022/04/30 09:23:31;;;;;;;5.55;2.25;;;9.10;99.90;;;;;;10424718;28;20049;-59
2022/04/30 09:28:36;;;;;;;6.28;2.95;;;9.10;99.90;;;;;;10421229;28;20107;-60
2022/04/30 09:33:43;;;;;;;5.13;2.38;;;9.10;99.90;;;;;;10425123;28;20060;-59
2022/04/30 09:38:44;;;;;;;7.10;2.63;;;9.00;99.90;;;;;;10422462;28;20076;-59
2022/04/30 09:43:46;;;;;;;4.55;2.35;;;9.00;99.90;;;;;;10382366;28;20561;-60
2022/04/30 09:54:08;;;;;;;7.35;2.55;;;9.00;99.90;;;;;;10420550;28;20057;-63
2022/04/30 09:59:12;;;;;;;5.95;2.65;;;9.00;99.90;;;;;;10422112;28;20057;-61
2022/04/30 10:04:16;;;;;;;4.53;2.20;;;9.00;99.90;;;;;;10420917;28;20650;-61
2022/04/30 10:09:24;;;;;;;8.57;2.45;;;8.90;99.90;;;;;;10427992;28;20450;-61
2022/04/30 10:14:34;;;;;;;5.90;2.35;;;8.90;99.90;;;;;;10429345;28;20058;-59
2022/04/30 10:19:36;;;;;;;7.32;2.67;;;8.90;99.90;;;;;;10425531;28;20087;-61
2022/04/30 10:24:45;;;;;;;7.15;2.92;;;8.90;99.90;;;;;;10428198;28;20056;-60
2022/04/30 10:29:58;;;;;;;6.45;3.00;;;8.90;99.90;;;;;;10428267;28;20057;-59
2022/04/30 10:35:01;;;;;;;8.23;3.53;;;8.90;99.90;;;;;;10423618;28;20053;-59
2022/04/30 10:40:06;;;;;;;6.05;2.83;;;9.00;99.90;;;;;;10425759;28;20057;-60
2022/04/30 10:45:15;;;;;;;6.10;3.00;;;9.00;99.90;;;;;;10424395;28;20053;-60
2022/04/30 10:50:17;;;;;;;11.98;4.20;;;9.10;99.90;;;;;;10428135;28;20384;-60
2022/04/30 10:55:20;;;;;;;7.07;3.22;;;9.00;99.90;;;;;;10377112;23;20053;-92
2022/04/30 11:00:22;;;;;;;5.57;3.03;;;9.00;99.90;;;;;;10436738;28;20063;-92
2022/04/30 11:05:25;;;;;;;7.60;3.28;;;9.00;99.90;;;;;;10443423;28;20056;-91
2022/04/30 11:10:31;;;;;;;6.30;3.10;;;9.10;99.90;;;;;;10411506;28;20052;-91
2022/04/30 11:15:33;;;;;;;13.05;3.78;;;9.10;99.90;;;;;;10460635;28;20075;-91
2022/04/30 11:20:35;;;;;;;8.23;3.75;;;9.10;99.90;;;;;;10488717;28;20048;-91
2022/04/30 11:25:39;;;;;;;9.75;3.85;;;9.20;99.90;;;;;;10456505;28;20110;-92
2022/04/30 11:30:43;;;;;;;5.28;2.90;;;9.20;99.90;;;;;;10457155;28;20068;-91
2022/04/30 11:35:53;;;;;;;14.85;3.80;;;9.20;99.90;;;;;;10470757;28;20139;-90
2022/04/30 11:41:03;;;;;;;7.93;3.35;;;9.20;99.90;;;;;;10447842;28;20128;-90
2022/04/30 11:46:07;;;;;;;8.30;3.60;;;9.30;99.90;;;;;;10442146;28;20048;-90
2022/04/30 11:51:10;;;;;;;11.00;3.75;;;9.40;99.90;;;;;;10471870;28;20091;-91
2022/04/30 11:56:12;;;;;;;6.65;3.15;;;9.40;99.90;;;;;;10424694;28;20108;-90
2022/04/30 12:01:21;;;;;;;6.30;3.35;;;9.60;99.90;;;;;;10440266;28;20091;-93
2022/04/30 12:06:27;;;;;;;7.82;3.58;;;9.60;99.90;;;;;;10358038;28;20067;-90
2022/04/30 12:11:41;;;;;;;9.60;3.35;;;9.60;99.90;;;;;;10420434;28;20049;-89
2022/04/30 12:16:45;;;;;;;11.40;3.70;;;9.80;99.90;;;;;;10393660;28;20072;-91
2022/04/30 12:27:10;;;;;;;8.55;3.20;;;10.20;99.90;;;;;;10387427;28;20058;-92
2022/04/30 12:32:20;;;;;;;6.95;3.05;;;10.30;99.90;;;;;;10412648;28;20067;-92
2022/04/30 12:37:30;;;;;;;8.10;3.20;;;10.70;99.90;;;;;;10392053;28;20065;-92
2022/04/30 12:42:34;;;;;;;10.32;4.00;;;10.80;99.90;;;;;;10411885;28;20049;-92
2022/04/30 12:47:36;;;;;;;8.07;2.85;;;11.10;99.90;;;;;;10408126;28;20075;-91
2022/04/30 12:52:38;;;;;;;6.22;3.55;;;11.10;99.90;;;;;;10426159;28;20041;-90
2022/04/30 12:57:40;;;;;;;6.57;3.25;;;11.20;99.90;;;;;;10444482;28;20045;-91
2022/04/30 13:02:43;;;;;;;7.43;3.67;;;11.30;99.90;;;;;;10443321;28;20502;-90
2022/04/30 13:07:45;;;;;;;8.88;3.90;;;11.50;99.90;;;;;;10479585;28;20104;-89
2022/04/30 13:18:12;;;;;;;8.32;3.70;;;11.40;99.90;;;;;;10475076;28;20052;-89
2022/04/30 13:23:14;;;;;;;11.63;3.80;;;11.40;99.90;;;;;;10457515;28;20076;-89
2022/04/30 13:28:20;;;;;;;11.95;3.72;;;11.40;99.90;;;;;;10458462;28;20052;-88
2022/04/30 13:33:22;;;;;;;11.52;3.70;;;11.40;99.90;;;;;;10463238;28;20058;-89
2022/04/30 13:38:24;;;;;;;9.70;3.83;;;11.50;99.90;;;;;;10427624;28;20661;-89
2022/04/30 13:43:26;;;;;;;7.88;3.75;;;11.80;99.90;;;;;;10463930;28;20065;-90
2022/04/30 13:48:29;;;;;;;13.80;4.25;;;12.00;99.90;;;;;;10452722;28;20044;-90
2022/04/30 13:53:31;;;;;;;11.40;4.18;;;12.10;99.90;;;;;;10463816;28;20128;-91
2022/04/30 13:58:33;;;;;;;9.02;4.05;;;12.10;99.90;;;;;;10467423;28;20060;-90
2022/04/30 14:03:35;;;;;;;9.18;4.05;;;12.00;99.90;;;;;;10450678;28;20064;-90
2022/04/30 14:08:37;;;;;;;9.75;4.47;;;12.00;99.90;;;;;;10465267;28;20123;-90
2022/04/30 14:18:59;;;;;;;9.70;4.25;;;12.00;99.90;;;;;;10449507;28;20471;-90
2022/04/30 14:24:02;;;;;;;8.13;3.88;;;11.80;99.90;;;;;;10451387;28;20135;-89
2022/04/30 14:29:24;;;;;;;9.18;4.30;;;12.00;99.90;;;;;;10453999;28;20061;-89
2022/04/30 14:34:26;;;;;;;9.00;3.60;;;12.00;99.90;;;;;;10422251;28;20068;-89
2022/04/30 14:39:28;;;;;;;5.75;3.85;;;12.10;99.90;;;;;;10456673;28;20140;-89
2022/04/30 14:44:32;;;;;;;11.85;4.35;;;12.10;99.90;;;;;;10464473;28;20095;-89
2022/04/30 14:49:35;;;;;;;10.98;4.20;;;12.20;99.90;;;;;;10472036;28;20755;-89
2022/04/30 14:54:37;;;;;;;9.57;4.47;;;12.20;99.90;;;;;;10437190;28;20049;-89
2022/04/30 14:59:39;;;;;;;9.80;3.88;;;12.20;99.90;;;;;;10443976;28;20048;-89
2022/04/30 15:04:41;;;;;;;7.38;3.58;;;12.10;99.90;;;;;;10424390;28;20052;-89
2022/04/30 15:09:43;;;;;;;7.40;3.65;;;12.10;99.90;;;;;;10426750;28;20120;-89
2022/04/30 15:14:48;;;;;;;8.90;3.97;;;12.00;99.90;;;;;;10438815;28;20046;-90
2022/04/30 15:19:50;;;;;;;8.77;3.97;;;12.00;99.90;;;;;;10420255;28;22677;-87
2022/04/30 15:24:52;;;;;;;8.57;4.10;;;12.00;99.10;;;;;;10424422;28;20058;-89
2022/04/30 15:29:54;;;;;;;8.32;4.00;;;12.00;99.90;;;;;;10402666;28;20025;-88
2022/04/30 15:34:56;;;;;;;8.30;3.95;;;11.80;99.40;;;;;;10432073;28;20574;-88
2022/04/30 15:39:58;;;;;;;6.55;4.10;;;11.80;99.30;;;;;;10433748;28;20063;-88
2022/04/30 15:44:59;;;;;;;10.73;4.43;;;11.90;99.90;;;;;;10423040;28;20059;-88
2022/04/30 15:55:39;;;;;;;11.20;3.63;;;12.00;99.30;;;;;;10438782;28;20039;-89
2022/04/30 16:00:41;;;;;;;7.82;4.05;;;12.10;99.70;;;;;;10454861;28;20040;-89
2022/04/30 16:05:43;;;;;;;11.65;4.70;;;12.20;99.90;;;;;;10434712;28;20041;-88
2022/04/30 16:10:44;;;;;;;8.13;3.70;;;12.30;98.40;;;;;;10457996;28;20067;-88
2022/04/30 16:15:47;;;;;;;9.45;4.45;;;12.30;96.90;;;;;;10456605;28;20128;-88
2022/04/30 16:20:48;;;;;;;10.20;3.88;;;12.30;96.50;;;;;;10440111;28;20653;-88
2022/04/30 16:25:51;;;;;;;6.90;3.63;;;12.50;96.40;;;;;;10456594;28;20048;-89
2022/04/30 16:30:53;;;;;;;6.85;3.17;;;12.50;94.50;;;;;;10460262;28;20051;-88
2022/04/30 16:35:56;;;;;;;4.93;3.80;;;12.40;95.10;;;;;;10459193;28;20052;-89
2022/04/30 16:40:59;;;;;;;9.57;3.85;;;12.40;94.60;;;;;;10444543;28;20098;-89
2022/04/30 16:46:01;;;;;;;9.05;4.15;;;12.40;95.40;;;;;;10440306;28;20087;-89
2022/04/30 17:02:05;;;;;;;6.88;3.40;;;12.20;97.20;;;;;;10474119;28;20047;-89
2022/04/30 17:07:16;;;;;;;8.15;3.25;;;12.10;98.30;;;;;;10461883;28;20047;-89
2022/04/30 17:12:18;;;;;;;9.70;4.07;;;11.90;98.00;;;;;;10442110;28;20040;-89
2022/04/30 17:17:24;;;;;;;10.05;3.58;;;11.90;98.70;;;;;;10481181;28;20052;-89
2022/04/30 17:22:26;;;;;;;8.63;4.00;;;11.80;99.10;;;;;;10457231;28;20120;-90
2022/04/30 17:27:28;;;;;;;6.57;3.38;;;11.60;98.80;;;;;;10482535;28;20049;-89
2022/04/30 17:38:03;;;;;;;9.80;4.07;;;11.50;99.90;;;;;;10464428;28;21236;-90
2022/04/30 17:43:07;;;;;;;9.60;3.85;;;11.40;99.90;;;;;;10464366;28;20112;-88
2022/04/30 17:48:11;;;;;;;7.20;3.33;;;11.40;99.90;;;;;;10451131;28;20096;-89
2022/04/30 17:53:13;;;;;;;12.35;4.15;;;11.40;99.90;;;;;;10464293;28;20044;-89
2022/04/30 17:58:16;;;;;;;12.48;3.47;;;11.30;99.90;;;;;;10450874;28;20036;-88
2022/04/30 18:03:27;;;;;;;7.43;3.60;;;11.30;99.90;;;;;;10445412;28;20041;-88
2022/04/30 18:08:29;;;;;;;9.93;3.00;;;11.20;99.90;;;;;;10444149;28;20067;-89
2022/04/30 18:13:34;;;;;;;8.15;4.22;;;11.10;99.90;;;;;;10470951;28;20040;-89
2022/04/30 18:18:36;;;;;;;9.00;3.15;;;11.10;99.90;;;;;;10477821;28;20048;-88
2022/04/30 18:23:38;;;;;;;15.60;4.93;;;11.00;99.90;;;;;;10449002;28;20064;-88
2022/04/30 18:28:40;;;;;;;7.43;3.88;;;11.00;99.90;;;;;;10428636;28;20102;-89
2022/04/30 18:33:43;;;;;;;7.70;3.92;;;11.00;99.90;;;;;;10419602;28;20052;-88
2022/04/30 18:38:47;;;;;;;7.07;3.65;;;11.00;99.90;;;;;;10445844;28;20056;-89
2022/04/30 18:43:50;;;;;;;9.00;3.40;;;10.90;99.90;;;;;;10473383;28;20075;-89
2022/04/30 18:48:54;;;;;;;9.85;3.30;;;10.90;99.90;;;;;;10431356;28;20060;-88
2022/04/30 19:04:37;;;;;;;5.35;2.72;;;10.70;99.90;;;;;;10483321;28;20099;-89
2022/04/30 19:09:39;;;;;;;4.75;2.60;;;10.70;99.90;;;;;;10439383;28;20060;-89
2022/04/30 19:14:43;;;;;;;3.78;2.25;;;10.80;99.90;;;;;;10483740;28;20599;-89
2022/04/30 19:19:45;;;;;;;6.15;2.92;;;10.70;99.90;;;;;;10480600;28;20532;-88
2022/04/30 19:24:48;;;;;;;5.63;2.72;;;10.70;99.90;;;;;;10459402;28;20106;-87
2022/04/30 19:29:49;;;;;;;5.50;2.42;;;10.60;99.90;;;;;;10459260;28;20132;-87
2022/04/30 19:34:51;;;;;;;3.10;2.42;;;10.60;99.90;;;;;;10416543;28;20136;-88
2022/04/30 19:39:53;;;;;;;9.48;3.30;;;10.60;99.90;;;;;;10436224;28;20108;-87
2022/04/30 19:44:55;;;;;;;7.07;2.72;;;10.50;99.90;;;;;;10417189;28;20584;-88
2022/04/30 19:50:01;;;;;;;8.88;2.58;;;10.60;99.90;;;;;;10453333;28;20102;-87
2022/04/30 19:55:04;;;;;;;4.63;2.10;;;10.50;99.90;;;;;;10455795;28;20064;-87
2022/04/30 20:00:08;;;;;;;6.65;2.15;;;10.50;99.90;;;;;;10480778;28;20131;-88
2022/04/30 20:05:11;;;;;;;3.83;1.83;;;10.50;99.90;;;;;;10462921;28;20105;-88
2022/04/30 20:20:58;;;;;;;8.50;2.17;;;10.50;99.90;;;;;;10422851;28;20103;-86
2022/04/30 20:26:00;;;;;;;3.33;1.80;;;10.40;99.90;;;;;;10465076;28;20052;-87
2022/04/30 20:36:41;;;;;;;5.55;1.90;;;10.40;99.90;;;;;;10476661;28;20064;-87
2022/04/30 20:41:43;;;;;;;3.83;1.67;;;10.40;99.90;;;;;;10457528;28;20052;-87
2022/04/30 20:46:57;;;;;;;3.92;2.10;;;10.40;99.90;;;;;;10435754;28;20134;-87
2022/04/30 20:51:59;;;;;;;4.32;2.03;;;10.40;99.90;;;;;;10461033;28;20055;-88
2022/04/30 20:57:06;;;;;;;6.70;2.55;;;10.40;99.90;;;;;;10461223;28;20451;-88
2022/04/30 21:02:13;;;;;;;5.10;2.15;;;10.30;99.90;;;;;;10460679;28;20076;-88
2022/04/30 21:07:15;;;;;;;7.00;2.20;;;10.30;99.90;;;;;;10442694;28;20057;-88
2022/04/30 21:12:17;;;;;;;4.35;2.45;;;10.20;99.90;;;;;;10463923;28;20052;-87
2022/04/30 21:17:20;;;;;;;7.35;2.22;;;10.20;99.90;;;;;;10454382;28;20080;-88
2022/04/30 21:22:23;;;;;;;4.93;1.90;;;10.20;99.90;;;;;;10450027;28;20053;-88
2022/04/30 21:27:26;;;;;;;3.83;2.45;;;10.20;99.90;;;;;;10460007;28;20049;-89
2022/04/30 21:32:28;;;;;;;17.33;3.08;;;10.20;99.90;;;;;;10431882;28;20051;-89
2022/04/30 21:37:30;;;;;;;6.05;2.70;;;10.20;99.90;;;;;;10432016;28;20049;-90
2022/04/30 21:42:32;;;;;;;9.98;2.55;;;10.20;99.90;;;;;;10370821;28;20403;-89
2022/04/30 21:47:35;;;;;;;4.75;2.28;;;10.20;99.90;;;;;;10435926;28;20058;-90
2022/04/30 21:52:38;;;;;;;7.55;2.35;;;10.20;99.50;;;;;;10449676;28;20093;-90
2022/04/30 22:03:01;;;;;;;2.72;1.65;;;10.20;96.60;;;;;;10482315;28;20052;-88
2022/04/30 22:08:04;;;;;;;5.82;2.08;;;10.20;95.30;;;;;;10422468;28;20060;-89
2022/04/30 22:13:06;;;;;;;4.88;1.50;;;10.30;94.90;;;;;;10433622;28;20057;-88
2022/04/30 22:18:08;;;;;;;4.55;1.83;;;10.30;92.60;;;;;;10455648;28;20749;-88
2022/04/30 22:23:10;;;;;;;7.32;2.08;;;10.30;94.80;;;;;;10443470;28;20122;-90
2022/04/30 22:28:12;;;;;;;9.05;2.92;;;10.20;96.90;;;;;;10404078;28;20069;-89
2022/04/30 22:33:20;;;;;;;7.10;1.90;;;10.20;97.40;;;;;;10345734;28;20112;-91
2022/04/30 22:38:36;;;;;;;6.50;1.45;;;10.20;98.90;;;;;;10428844;28;20050;-89
2022/04/30 22:43:38;;;;;;;6.88;2.00;;;10.10;99.90;;;;;;10476063;28;20048;-89
2022/04/30 22:49:00;;;;;;;4.43;1.40;;;10.10;99.90;;;;;;10459526;28;20052;-89
2022/04/30 22:54:02;;;;;;;7.10;1.90;;;10.10;99.70;;;;;;10416775;28;20052;-89
2022/04/30 22:59:26;;;;;;;3.35;1.63;;;10.20;98.00;;;;;;10431789;28;20140;-89
2022/04/30 23:04:28;;;;;;;2.25;1.40;;;10.20;96.80;;;;;;10416426;28;20046;-89
2022/04/30 23:09:30;;;;;;;4.40;1.45;;;10.20;96.30;;;;;;10448965;28;20053;-89
2022/04/30 23:14:39;;;;;;;3.60;1.48;;;10.30;96.80;;;;;;10443282;28;20057;-90
2022/04/30 23:19:41;;;;;;;2.83;1.35;;;10.20;96.30;;;;;;10427581;28;20053;-89
2022/04/30 23:24:45;;;;;;;3.00;0.98;;;10.20;96.50;;;;;;10431003;28;20045;-90
2022/04/30 23:29:47;;;;;;;4.85;1.83;;;10.20;96.10;;;;;;10421796;28;20116;-90
2022/04/30 23:34:51;;;;;;;6.75;1.65;;;10.20;96.90;;;;;;10427990;28;20083;-91
2022/04/30 23:39:53;;;;;;;3.38;1.50;;;10.20;97.30;;;;;;10391269;28;20056;-89
2022/04/30 23:44:57;;;;;;;2.95;1.88;;;10.20;97.10;;;;;;10431516;28;20055;-90
2022/04/30 23:49:59;;;;;;;5.93;1.85;;;10.10;96.40;;;;;;10405175;28;20056;-90
2022/04/30 23:55:01;;;;;;;5.43;1.80;;;10.20;95.70;;;;;;10424999;28;20422;-91
